sensor_id;sensor_type;location;lat;lon;timestamp;P1;durP1;ratioP1;P2;durP2;ratioP2
42098;SDS011;27758;55.900;8.516;2023-06-22T00:00:53;20.15;;;12.25;;
42098;SDS011;27758;55.900;8.516;2023-06-22T00:03:20;21.67;;;11.68;;
42098;SDS011;27758;55.900;8.516;2023-06-22T00:05:47;19.27;;;12.60;;
42098;SDS011;27758;55.900;8.516;2023-06-22T00:08:13;24.95;;;12.90;;
42098;SDS011;27758;55.900;8.516;2023-06-22T00:10:39;28.73;;;14.35;;
42098;SDS011;27758;55.900;8.516;2023-06-22T00:13:06;22.27;;;12.95;;
42098;SDS011;27758;55.900;8.516;2023-06-22T00:15:32;22.33;;;12.00;;
42098;SDS011;27758;55.900;8.516;2023-06-22T00:17:58;24.02;;;12.00;;
42098;SDS011;27758;55.900;8.516;2023-06-22T00:20:25;22.38;;;11.40;;
42098;SDS011;27758;55.900;8.516;2023-06-22T00:22:55;17.17;;;11.48;;
42098;SDS011;27758;55.900;8.516;2023-06-22T00:25:22;17.67;;;11.40;;
42098;SDS011;27758;55.900;8.516;2023-06-22T00:27:48;21.67;;;12.30;;
42098;SDS011;27758;55.900;8.516;2023-06-22T00:30:15;21.02;;;12.68;;
42098;SDS011;27758;55.900;8.516;2023-06-22T00:32:42;20.02;;;12.65;;
42098;SDS011;27758;55.900;8.516;2023-06-22T00:35:08;25.73;;;14.05;;
42098;SDS011;27758;55.900;8.516;2023-06-22T00:37:35;24.52;;;13.30;;
42098;SDS011;27758;55.900;8.516;2023-06-22T00:40:01;17.98;;;11.75;;
42098;SDS011;27758;55.900;8.516;2023-06-22T00:42:29;25.30;;;13.85;;
42098;SDS011;27758;55.900;8.516;2023-06-22T00:44:55;20.83;;;11.88;;
42098;SDS011;27758;55.900;8.516;2023-06-22T00:47:22;20.08;;;12.88;;
42098;SDS011;27758;55.900;8.516;2023-06-22T00:49:48;22.67;;;14.20;;
42098;SDS011;27758;55.900;8.516;2023-06-22T00:52:18;23.65;;;14.40;;
42098;SDS011;27758;55.900;8.516;2023-06-22T00:54:49;24.48;;;15.15;;
42098;SDS011;27758;55.900;8.516;2023-06-22T00:57:17;23.85;;;15.63;;
42098;SDS011;27758;55.900;8.516;2023-06-22T00:59:45;23.80;;;15.32;;
42098;SDS011;27758;55.900;8.516;2023-06-22T01:02:12;27.30;;;15.27;;
42098;SDS011;27758;55.900;8.516;2023-06-22T01:04:39;24.02;;;12.75;;
42098;SDS011;27758;55.900;8.516;2023-06-22T01:09:35;23.95;;;14.75;;
42098;SDS011;27758;55.900;8.516;2023-06-22T01:12:32;24.95;;;14.63;;
42098;SDS011;27758;55.900;8.516;2023-06-22T01:15:08;24.38;;;12.73;;
42098;SDS011;27758;55.900;8.516;2023-06-22T01:17:40;22.95;;;13.85;;
42098;SDS011;27758;55.900;8.516;2023-06-22T01:20:08;20.80;;;12.80;;
42098;SDS011;27758;55.900;8.516;2023-06-22T01:22:51;17.90;;;12.37;;
42098;SDS011;27758;55.900;8.516;2023-06-22T01:26:01;18.73;;;12.70;;
42098;SDS011;27758;55.900;8.516;2023-06-22T01:28:53;19.10;;;12.25;;
42098;SDS011;27758;55.900;8.516;2023-06-22T01:31:25;21.07;;;14.07;;
42098;SDS011;27758;55.900;8.516;2023-06-22T01:33:55;24.05;;;15.18;;
42098;SDS011;27758;55.900;8.516;2023-06-22T01:36:25;26.70;;;13.68;;
42098;SDS011;27758;55.900;8.516;2023-06-22T01:38:52;21.27;;;13.13;;
42098;SDS011;27758;55.900;8.516;2023-06-22T01:41:18;18.60;;;13.20;;
42098;SDS011;27758;55.900;8.516;2023-06-22T01:43:46;22.73;;;14.70;;
42098;SDS011;27758;55.900;8.516;2023-06-22T01:46:13;18.98;;;14.15;;
42098;SDS011;27758;55.900;8.516;2023-06-22T01:48:39;19.13;;;14.43;;
42098;SDS011;27758;55.900;8.516;2023-06-22T01:51:05;20.92;;;14.68;;
42098;SDS011;27758;55.900;8.516;2023-06-22T01:53:32;17.27;;;13.93;;
42098;SDS011;27758;55.900;8.516;2023-06-22T01:55:57;21.38;;;14.90;;
42098;SDS011;27758;55.900;8.516;2023-06-22T01:58:25;22.10;;;14.30;;
42098;SDS011;27758;55.900;8.516;2023-06-22T02:01:09;18.85;;;13.77;;
42098;SDS011;27758;55.900;8.516;2023-06-22T02:03:37;17.42;;;12.52;;
42098;SDS011;27758;55.900;8.516;2023-06-22T02:06:27;31.35;;;15.30;;
42098;SDS011;27758;55.900;8.516;2023-06-22T02:09:01;22.65;;;13.73;;
42098;SDS011;27758;55.900;8.516;2023-06-22T02:11:31;26.73;;;13.95;;
42098;SDS011;27758;55.900;8.516;2023-06-22T02:13:58;22.58;;;12.38;;
42098;SDS011;27758;55.900;8.516;2023-06-22T02:16:25;36.30;;;13.68;;
42098;SDS011;27758;55.900;8.516;2023-06-22T02:18:54;23.77;;;13.05;;
42098;SDS011;27758;55.900;8.516;2023-06-22T02:21:23;29.90;;;15.45;;
42098;SDS011;27758;55.900;8.516;2023-06-22T02:23:48;29.48;;;15.98;;
42098;SDS011;27758;55.900;8.516;2023-06-22T02:26:15;31.20;;;17.65;;
42098;SDS011;27758;55.900;8.516;2023-06-22T02:28:42;41.10;;;18.83;;
42098;SDS011;27758;55.900;8.516;2023-06-22T02:31:08;39.60;;;17.88;;
42098;SDS011;27758;55.900;8.516;2023-06-22T02:33:33;45.47;;;17.88;;
42098;SDS011;27758;55.900;8.516;2023-06-22T02:35:59;29.45;;;18.50;;
42098;SDS011;27758;55.900;8.516;2023-06-22T02:38:25;32.15;;;19.10;;
42098;SDS011;27758;55.900;8.516;2023-06-22T02:40:51;47.53;;;20.73;;
42098;SDS011;27758;55.900;8.516;2023-06-22T02:43:17;61.25;;;20.80;;
42098;SDS011;27758;55.900;8.516;2023-06-22T02:45:42;51.55;;;22.35;;
42098;SDS011;27758;55.900;8.516;2023-06-22T02:48:08;37.67;;;21.75;;
42098;SDS011;27758;55.900;8.516;2023-06-22T02:50:35;80.68;;;27.30;;
42098;SDS011;27758;55.900;8.516;2023-06-22T02:53:00;50.58;;;22.73;;
42098;SDS011;27758;55.900;8.516;2023-06-22T02:55:26;28.60;;;19.30;;
42098;SDS011;27758;55.900;8.516;2023-06-22T02:57:51;54.97;;;22.33;;
42098;SDS011;27758;55.900;8.516;2023-06-22T03:00:18;71.43;;;26.17;;
42098;SDS011;27758;55.900;8.516;2023-06-22T03:02:47;36.55;;;21.98;;
42098;SDS011;27758;55.900;8.516;2023-06-22T03:05:14;29.83;;;20.40;;
42098;SDS011;27758;55.900;8.516;2023-06-22T03:07:43;70.47;;;25.20;;
42098;SDS011;27758;55.900;8.516;2023-06-22T03:10:09;33.90;;;21.15;;
42098;SDS011;27758;55.900;8.516;2023-06-22T03:12:39;33.63;;;19.65;;
42098;SDS011;27758;55.900;8.516;2023-06-22T03:15:06;22.45;;;17.48;;
42098;SDS011;27758;55.900;8.516;2023-06-22T03:17:33;32.47;;;20.33;;
42098;SDS011;27758;55.900;8.516;2023-06-22T03:20:00;32.65;;;21.27;;
42098;SDS011;27758;55.900;8.516;2023-06-22T03:22:34;32.10;;;19.73;;
42098;SDS011;27758;55.900;8.516;2023-06-22T03:25:01;26.52;;;19.75;;
42098;SDS011;27758;55.900;8.516;2023-06-22T03:27:27;55.55;;;21.85;;
42098;SDS011;27758;55.900;8.516;2023-06-22T03:29:52;51.08;;;22.40;;
42098;SDS011;27758;55.900;8.516;2023-06-22T03:32:18;35.55;;;21.45;;
42098;SDS011;27758;55.900;8.516;2023-06-22T03:34:44;37.13;;;21.50;;
42098;SDS011;27758;55.900;8.516;2023-06-22T03:37:13;24.98;;;19.33;;
42098;SDS011;27758;55.900;8.516;2023-06-22T03:39:40;35.45;;;20.13;;
42098;SDS011;27758;55.900;8.516;2023-06-22T03:42:06;52.28;;;21.10;;
42098;SDS011;27758;55.900;8.516;2023-06-22T03:44:32;40.65;;;20.65;;
42098;SDS011;27758;55.900;8.516;2023-06-22T03:46:58;46.83;;;22.88;;
42098;SDS011;27758;55.900;8.516;2023-06-22T03:49:24;23.38;;;18.30;;
42098;SDS011;27758;55.900;8.516;2023-06-22T03:51:49;29.50;;;20.20;;
42098;SDS011;27758;55.900;8.516;2023-06-22T03:54:15;30.48;;;19.77;;
42098;SDS011;27758;55.900;8.516;2023-06-22T03:56:41;23.20;;;19.10;;
42098;SDS011;27758;55.900;8.516;2023-06-22T03:59:06;33.00;;;20.75;;
42098;SDS011;27758;55.900;8.516;2023-06-22T04:01:32;26.17;;;19.50;;
42098;SDS011;27758;55.900;8.516;2023-06-22T04:03:58;37.35;;;21.70;;
42098;SDS011;27758;55.900;8.516;2023-06-22T04:06:24;38.05;;;22.95;;
42098;SDS011;27758;55.900;8.516;2023-06-22T04:08:50;23.85;;;18.92;;
42098;SDS011;27758;55.900;8.516;2023-06-22T04:11:19;29.75;;;18.75;;
42098;SDS011;27758;55.900;8.516;2023-06-22T04:13:44;40.22;;;23.25;;
42098;SDS011;27758;55.900;8.516;2023-06-22T04:16:10;31.13;;;18.38;;
42098;SDS011;27758;55.900;8.516;2023-06-22T04:18:36;34.50;;;21.25;;
42098;SDS011;27758;55.900;8.516;2023-06-22T04:21:02;36.78;;;20.98;;
42098;SDS011;27758;55.900;8.516;2023-06-22T04:23:28;49.85;;;23.15;;
42098;SDS011;27758;55.900;8.516;2023-06-22T04:25:53;30.83;;;20.77;;
42098;SDS011;27758;55.900;8.516;2023-06-22T04:28:21;33.83;;;20.48;;
42098;SDS011;27758;55.900;8.516;2023-06-22T04:30:47;27.15;;;21.17;;
42098;SDS011;27758;55.900;8.516;2023-06-22T04:33:13;35.42;;;23.42;;
42098;SDS011;27758;55.900;8.516;2023-06-22T04:35:39;41.75;;;24.20;;
42098;SDS011;27758;55.900;8.516;2023-06-22T04:38:06;38.85;;;25.67;;
42098;SDS011;27758;55.900;8.516;2023-06-22T04:40:32;35.17;;;24.60;;
42098;SDS011;27758;55.900;8.516;2023-06-22T04:42:59;40.47;;;27.27;;
42098;SDS011;27758;55.900;8.516;2023-06-22T04:45:27;36.30;;;24.48;;
42098;SDS011;27758;55.900;8.516;2023-06-22T04:47:57;40.92;;;28.80;;
42098;SDS011;27758;55.900;8.516;2023-06-22T04:50:23;46.25;;;30.73;;
42098;SDS011;27758;55.900;8.516;2023-06-22T04:52:49;48.47;;;29.08;;
42098;SDS011;27758;55.900;8.516;2023-06-22T04:55:15;43.25;;;29.48;;
42098;SDS011;27758;55.900;8.516;2023-06-22T04:57:48;54.22;;;32.75;;
42098;SDS011;27758;55.900;8.516;2023-06-22T05:00:16;54.75;;;32.85;;
42098;SDS011;27758;55.900;8.516;2023-06-22T05:02:43;59.10;;;32.75;;
42098;SDS011;27758;55.900;8.516;2023-06-22T05:05:13;59.42;;;34.78;;
42098;SDS011;27758;55.900;8.516;2023-06-22T05:07:42;63.90;;;35.17;;
42098;SDS011;27758;55.900;8.516;2023-06-22T05:10:09;56.05;;;33.75;;
42098;SDS011;27758;55.900;8.516;2023-06-22T05:12:37;55.53;;;32.85;;
42098;SDS011;27758;55.900;8.516;2023-06-22T05:15:03;53.08;;;32.05;;
42098;SDS011;27758;55.900;8.516;2023-06-22T05:17:30;53.83;;;33.40;;
42098;SDS011;27758;55.900;8.516;2023-06-22T05:19:56;45.60;;;29.33;;
42098;SDS011;27758;55.900;8.516;2023-06-22T05:22:22;48.03;;;30.35;;
42098;SDS011;27758;55.900;8.516;2023-06-22T05:24:47;44.63;;;29.52;;
42098;SDS011;27758;55.900;8.516;2023-06-22T05:27:13;48.85;;;30.45;;
42098;SDS011;27758;55.900;8.516;2023-06-22T05:29:39;46.67;;;28.67;;
42098;SDS011;27758;55.900;8.516;2023-06-22T05:32:05;44.92;;;27.20;;
42098;SDS011;27758;55.900;8.516;2023-06-22T05:34:32;39.05;;;28.23;;
42098;SDS011;27758;55.900;8.516;2023-06-22T05:36:57;38.38;;;25.85;;
42098;SDS011;27758;55.900;8.516;2023-06-22T05:39:26;40.95;;;27.73;;
42098;SDS011;27758;55.900;8.516;2023-06-22T05:41:52;39.35;;;27.02;;
42098;SDS011;27758;55.900;8.516;2023-06-22T05:44:18;38.72;;;24.70;;
42098;SDS011;27758;55.900;8.516;2023-06-22T05:46:44;36.67;;;24.98;;
42098;SDS011;27758;55.900;8.516;2023-06-22T05:49:11;30.58;;;21.98;;
42098;SDS011;27758;55.900;8.516;2023-06-22T05:51:38;33.97;;;23.77;;
42098;SDS011;27758;55.900;8.516;2023-06-22T05:54:03;27.75;;;21.00;;
42098;SDS011;27758;55.900;8.516;2023-06-22T05:56:29;28.17;;;21.27;;
42098;SDS011;27758;55.900;8.516;2023-06-22T05:58:55;27.73;;;18.75;;
42098;SDS011;27758;55.900;8.516;2023-06-22T06:01:21;23.67;;;17.25;;
42098;SDS011;27758;55.900;8.516;2023-06-22T06:03:47;26.05;;;17.52;;
42098;SDS011;27758;55.900;8.516;2023-06-22T06:06:15;23.00;;;16.58;;
42098;SDS011;27758;55.900;8.516;2023-06-22T06:08:41;23.40;;;16.35;;
42098;SDS011;27758;55.900;8.516;2023-06-22T06:11:06;18.90;;;15.18;;
42098;SDS011;27758;55.900;8.516;2023-06-22T06:13:32;20.08;;;14.85;;
42098;SDS011;27758;55.900;8.516;2023-06-22T06:15:58;23.63;;;15.88;;
42098;SDS011;27758;55.900;8.516;2023-06-22T06:18:24;19.88;;;14.35;;
42098;SDS011;27758;55.900;8.516;2023-06-22T06:20:50;19.50;;;13.15;;
42098;SDS011;27758;55.900;8.516;2023-06-22T06:23:16;17.30;;;12.68;;
42098;SDS011;27758;55.900;8.516;2023-06-22T06:25:41;16.35;;;13.23;;
42098;SDS011;27758;55.900;8.516;2023-06-22T06:28:07;16.70;;;11.07;;
42098;SDS011;27758;55.900;8.516;2023-06-22T06:30:33;13.65;;;9.98;;
42098;SDS011;27758;55.900;8.516;2023-06-22T06:32:59;17.10;;;11.63;;
42098;SDS011;27758;55.900;8.516;2023-06-22T06:35:25;13.70;;;10.05;;
42098;SDS011;27758;55.900;8.516;2023-06-22T06:37:51;17.27;;;9.07;;
42098;SDS011;27758;55.900;8.516;2023-06-22T06:40:18;18.15;;;10.43;;
42098;SDS011;27758;55.900;8.516;2023-06-22T06:42:44;15.48;;;10.80;;
42098;SDS011;27758;55.900;8.516;2023-06-22T06:45:12;15.73;;;9.85;;
42098;SDS011;27758;55.900;8.516;2023-06-22T06:47:40;16.35;;;9.30;;
42098;SDS011;27758;55.900;8.516;2023-06-22T06:50:07;15.55;;;8.75;;
42098;SDS011;27758;55.900;8.516;2023-06-22T06:52:33;14.40;;;8.27;;
42098;SDS011;27758;55.900;8.516;2023-06-22T06:54:59;13.82;;;8.18;;
42098;SDS011;27758;55.900;8.516;2023-06-22T06:57:25;12.25;;;8.60;;
42098;SDS011;27758;55.900;8.516;2023-06-22T06:59:57;11.77;;;7.93;;
42098;SDS011;27758;55.900;8.516;2023-06-22T07:02:23;16.77;;;7.80;;
42098;SDS011;27758;55.900;8.516;2023-06-22T07:04:52;14.00;;;7.68;;
42098;SDS011;27758;55.900;8.516;2023-06-22T07:07:20;11.02;;;6.85;;
42098;SDS011;27758;55.900;8.516;2023-06-22T07:09:46;13.00;;;5.78;;
42098;SDS011;27758;55.900;8.516;2023-06-22T07:12:12;10.65;;;6.95;;
42098;SDS011;27758;55.900;8.516;2023-06-22T07:14:37;12.90;;;5.80;;
42098;SDS011;27758;55.900;8.516;2023-06-22T07:17:03;8.68;;;5.75;;
42098;SDS011;27758;55.900;8.516;2023-06-22T07:19:29;8.65;;;4.53;;
42098;SDS011;27758;55.900;8.516;2023-06-22T07:21:56;6.75;;;4.03;;
42098;SDS011;27758;55.900;8.516;2023-06-22T07:24:22;11.85;;;5.63;;
42098;SDS011;27758;55.900;8.516;2023-06-22T07:26:49;7.50;;;4.70;;
42098;SDS011;27758;55.900;8.516;2023-06-22T07:29:22;7.97;;;4.45;;
42098;SDS011;27758;55.900;8.516;2023-06-22T07:31:48;9.27;;;4.03;;
42098;SDS011;27758;55.900;8.516;2023-06-22T07:34:16;9.50;;;3.85;;
42098;SDS011;27758;55.900;8.516;2023-06-22T07:36:48;6.13;;;3.65;;
42098;SDS011;27758;55.900;8.516;2023-06-22T07:39:13;13.05;;;4.40;;
42098;SDS011;27758;55.900;8.516;2023-06-22T07:41:42;5.60;;;3.22;;
42098;SDS011;27758;55.900;8.516;2023-06-22T07:44:07;6.18;;;3.15;;
42098;SDS011;27758;55.900;8.516;2023-06-22T07:46:33;7.35;;;3.60;;
42098;SDS011;27758;55.900;8.516;2023-06-22T07:48:59;6.18;;;3.53;;
42098;SDS011;27758;55.900;8.516;2023-06-22T07:51:29;4.85;;;3.30;;
42098;SDS011;27758;55.900;8.516;2023-06-22T07:53:54;5.50;;;3.33;;
42098;SDS011;27758;55.900;8.516;2023-06-22T07:56:20;5.53;;;3.13;;
42098;SDS011;27758;55.900;8.516;2023-06-22T07:58:46;4.05;;;2.80;;
42098;SDS011;27758;55.900;8.516;2023-06-22T08:01:13;7.25;;;3.42;;
42098;SDS011;27758;55.900;8.516;2023-06-22T08:03:39;5.85;;;3.05;;
42098;SDS011;27758;55.900;8.516;2023-06-22T08:06:05;6.10;;;3.22;;
42098;SDS011;27758;55.900;8.516;2023-06-22T08:08:33;8.43;;;3.30;;
42098;SDS011;27758;55.900;8.516;2023-06-22T08:10:59;5.38;;;3.10;;
42098;SDS011;27758;55.900;8.516;2023-06-22T08:13:24;6.35;;;3.45;;
42098;SDS011;27758;55.900;8.516;2023-06-22T08:15:50;5.32;;;3.17;;
42098;SDS011;27758;55.900;8.516;2023-06-22T08:18:16;7.90;;;3.50;;
42098;SDS011;27758;55.900;8.516;2023-06-22T08:20:42;4.53;;;2.70;;
42098;SDS011;27758;55.900;8.516;2023-06-22T08:23:07;6.55;;;3.03;;
42098;SDS011;27758;55.900;8.516;2023-06-22T08:25:33;4.18;;;2.47;;
42098;SDS011;27758;55.900;8.516;2023-06-22T08:28:00;7.65;;;3.33;;
42098;SDS011;27758;55.900;8.516;2023-06-22T08:32:55;4.70;;;2.90;;
42098;SDS011;27758;55.900;8.516;2023-06-22T08:35:24;4.97;;;2.70;;
42098;SDS011;27758;55.900;8.516;2023-06-22T08:40:20;6.15;;;2.95;;
42098;SDS011;27758;55.900;8.516;2023-06-22T08:42:46;3.80;;;2.60;;
42098;SDS011;27758;55.900;8.516;2023-06-22T08:45:13;5.32;;;2.78;;
42098;SDS011;27758;55.900;8.516;2023-06-22T08:47:39;8.30;;;2.70;;
42098;SDS011;27758;55.900;8.516;2023-06-22T08:50:06;6.60;;;3.38;;
42098;SDS011;27758;55.900;8.516;2023-06-22T08:52:33;5.85;;;2.85;;
42098;SDS011;27758;55.900;8.516;2023-06-22T08:55:00;5.07;;;2.45;;
42098;SDS011;27758;55.900;8.516;2023-06-22T08:57:26;8.43;;;3.40;;
42098;SDS011;27758;55.900;8.516;2023-06-22T08:59:52;4.03;;;2.53;;
42098;SDS011;27758;55.900;8.516;2023-06-22T09:02:18;4.43;;;2.50;;
42098;SDS011;27758;55.900;8.516;2023-06-22T09:04:45;5.00;;;3.05;;
42098;SDS011;27758;55.900;8.516;2023-06-22T09:07:11;5.80;;;2.65;;
42098;SDS011;27758;55.900;8.516;2023-06-22T09:09:37;4.53;;;2.75;;
42098;SDS011;27758;55.900;8.516;2023-06-22T09:12:03;6.45;;;3.10;;
42098;SDS011;27758;55.900;8.516;2023-06-22T09:14:29;5.25;;;2.95;;
42098;SDS011;27758;55.900;8.516;2023-06-22T09:16:55;5.15;;;2.80;;
42098;SDS011;27758;55.900;8.516;2023-06-22T09:19:20;8.15;;;2.60;;
42098;SDS011;27758;55.900;8.516;2023-06-22T09:21:46;5.20;;;2.65;;
42098;SDS011;27758;55.900;8.516;2023-06-22T09:24:12;3.97;;;2.30;;
42098;SDS011;27758;55.900;8.516;2023-06-22T09:26:40;4.28;;;2.53;;
42098;SDS011;27758;55.900;8.516;2023-06-22T09:29:06;5.28;;;2.92;;
42098;SDS011;27758;55.900;8.516;2023-06-22T09:31:31;6.53;;;2.40;;
42098;SDS011;27758;55.900;8.516;2023-06-22T09:33:57;6.82;;;2.95;;
42098;SDS011;27758;55.900;8.516;2023-06-22T09:36:23;6.30;;;2.85;;
42098;SDS011;27758;55.900;8.516;2023-06-22T09:38:49;7.38;;;2.30;;
42098;SDS011;27758;55.900;8.516;2023-06-22T09:41:21;3.90;;;2.30;;
42098;SDS011;27758;55.900;8.516;2023-06-22T09:43:47;6.10;;;2.88;;
42098;SDS011;27758;55.900;8.516;2023-06-22T09:46:16;5.15;;;3.13;;
42098;SDS011;27758;55.900;8.516;2023-06-22T09:48:42;9.95;;;3.50;;
42098;SDS011;27758;55.900;8.516;2023-06-22T09:51:08;6.05;;;3.20;;
42098;SDS011;27758;55.900;8.516;2023-06-22T09:53:34;8.20;;;3.30;;
42098;SDS011;27758;55.900;8.516;2023-06-22T09:56:00;7.38;;;3.83;;
42098;SDS011;27758;55.900;8.516;2023-06-22T09:58:27;7.60;;;4.28;;
42098;SDS011;27758;55.900;8.516;2023-06-22T10:00:52;6.55;;;3.70;;
42098;SDS011;27758;55.900;8.516;2023-06-22T10:03:19;5.55;;;3.08;;
42098;SDS011;27758;55.900;8.516;2023-06-22T10:05:46;7.40;;;3.30;;
42098;SDS011;27758;55.900;8.516;2023-06-22T10:08:11;9.07;;;3.58;;
42098;SDS011;27758;55.900;8.516;2023-06-22T10:10:37;9.07;;;3.60;;
42098;SDS011;27758;55.900;8.516;2023-06-22T10:13:07;5.70;;;2.92;;
42098;SDS011;27758;55.900;8.516;2023-06-22T10:15:35;5.05;;;3.10;;
42098;SDS011;27758;55.900;8.516;2023-06-22T10:18:01;7.28;;;3.35;;
42098;SDS011;27758;55.900;8.516;2023-06-22T10:20:27;6.43;;;3.28;;
42098;SDS011;27758;55.900;8.516;2023-06-22T10:22:53;8.40;;;3.97;;
42098;SDS011;27758;55.900;8.516;2023-06-22T10:25:19;7.18;;;3.63;;
42098;SDS011;27758;55.900;8.516;2023-06-22T10:27:45;9.95;;;4.53;;
42098;SDS011;27758;55.900;8.516;2023-06-22T10:30:11;7.57;;;3.83;;
42098;SDS011;27758;55.900;8.516;2023-06-22T10:32:38;6.97;;;3.88;;
42098;SDS011;27758;55.900;8.516;2023-06-22T10:35:04;8.60;;;4.15;;
42098;SDS011;27758;55.900;8.516;2023-06-22T10:37:31;7.38;;;4.57;;
42098;SDS011;27758;55.900;8.516;2023-06-22T10:39:56;8.68;;;4.22;;
42098;SDS011;27758;55.900;8.516;2023-06-22T10:42:22;6.72;;;4.03;;
42098;SDS011;27758;55.900;8.516;2023-06-22T10:44:48;12.07;;;4.20;;
42098;SDS011;27758;55.900;8.516;2023-06-22T10:47:13;8.77;;;3.65;;
42098;SDS011;27758;55.900;8.516;2023-06-22T10:49:39;8.40;;;4.00;;
42098;SDS011;27758;55.900;8.516;2023-06-22T10:52:08;10.73;;;4.75;;
42098;SDS011;27758;55.900;8.516;2023-06-22T10:54:34;7.45;;;4.63;;
42098;SDS011;27758;55.900;8.516;2023-06-22T10:57:01;7.10;;;4.22;;
42098;SDS011;27758;55.900;8.516;2023-06-22T10:59:27;6.28;;;3.63;;
42098;SDS011;27758;55.900;8.516;2023-06-22T11:01:57;10.18;;;4.65;;
42098;SDS011;27758;55.900;8.516;2023-06-22T11:04:24;8.13;;;4.10;;
42098;SDS011;27758;55.900;8.516;2023-06-22T11:06:50;7.90;;;3.95;;
42098;SDS011;27758;55.900;8.516;2023-06-22T11:09:16;5.72;;;3.63;;
42098;SDS011;27758;55.900;8.516;2023-06-22T11:11:45;7.70;;;4.38;;
42098;SDS011;27758;55.900;8.516;2023-06-22T11:14:12;7.75;;;3.92;;
42098;SDS011;27758;55.900;8.516;2023-06-22T11:16:37;6.78;;;3.83;;
42098;SDS011;27758;55.900;8.516;2023-06-22T11:19:04;7.25;;;3.63;;
42098;SDS011;27758;55.900;8.516;2023-06-22T11:21:30;8.98;;;3.50;;
42098;SDS011;27758;55.900;8.516;2023-06-22T11:23:56;8.05;;;3.47;;
42098;SDS011;27758;55.900;8.516;2023-06-22T11:26:22;5.53;;;3.30;;
42098;SDS011;27758;55.900;8.516;2023-06-22T11:28:48;6.53;;;3.30;;
42098;SDS011;27758;55.900;8.516;2023-06-22T11:31:14;7.05;;;3.78;;
42098;SDS011;27758;55.900;8.516;2023-06-22T11:33:39;7.55;;;3.38;;
42098;SDS011;27758;55.900;8.516;2023-06-22T11:36:05;5.78;;;3.45;;
42098;SDS011;27758;55.900;8.516;2023-06-22T11:38:31;5.82;;;3.22;;
42098;SDS011;27758;55.900;8.516;2023-06-22T11:41:00;9.10;;;3.47;;
42098;SDS011;27758;55.900;8.516;2023-06-22T11:45:51;5.57;;;2.60;;
42098;SDS011;27758;55.900;8.516;2023-06-22T11:48:17;5.65;;;2.63;;
42098;SDS011;27758;55.900;8.516;2023-06-22T11:50:43;6.97;;;3.70;;
42098;SDS011;27758;55.900;8.516;2023-06-22T11:53:08;4.95;;;3.30;;
42098;SDS011;27758;55.900;8.516;2023-06-22T11:55:34;6.57;;;2.80;;
42098;SDS011;27758;55.900;8.516;2023-06-22T11:58:00;6.70;;;2.70;;
42098;SDS011;27758;55.900;8.516;2023-06-22T12:00:28;5.90;;;3.22;;
42098;SDS011;27758;55.900;8.516;2023-06-22T12:02:57;7.45;;;3.05;;
42098;SDS011;27758;55.900;8.516;2023-06-22T12:05:22;6.10;;;2.53;;
42098;SDS011;27758;55.900;8.516;2023-06-22T12:07:49;5.63;;;2.72;;
42098;SDS011;27758;55.900;8.516;2023-06-22T12:10:15;5.75;;;3.10;;
42098;SDS011;27758;55.900;8.516;2023-06-22T12:12:41;8.18;;;2.83;;
42098;SDS011;27758;55.900;8.516;2023-06-22T12:15:08;6.78;;;3.03;;
42098;SDS011;27758;55.900;8.516;2023-06-22T12:17:34;4.38;;;2.70;;
42098;SDS011;27758;55.900;8.516;2023-06-22T12:20:00;4.72;;;2.50;;
42098;SDS011;27758;55.900;8.516;2023-06-22T12:22:27;7.78;;;2.75;;
42098;SDS011;27758;55.900;8.516;2023-06-22T12:24:52;5.43;;;2.65;;
42098;SDS011;27758;55.900;8.516;2023-06-22T12:27:18;5.25;;;2.55;;
42098;SDS011;27758;55.900;8.516;2023-06-22T12:29:47;6.30;;;2.78;;
42098;SDS011;27758;55.900;8.516;2023-06-22T12:32:13;5.40;;;2.85;;
42098;SDS011;27758;55.900;8.516;2023-06-22T12:34:39;6.88;;;2.72;;
42098;SDS011;27758;55.900;8.516;2023-06-22T12:37:08;3.67;;;2.00;;
42098;SDS011;27758;55.900;8.516;2023-06-22T12:39:34;4.93;;;2.50;;
42098;SDS011;27758;55.900;8.516;2023-06-22T12:41:59;5.40;;;2.50;;
42098;SDS011;27758;55.900;8.516;2023-06-22T12:44:25;4.30;;;2.40;;
42098;SDS011;27758;55.900;8.516;2023-06-22T12:46:51;4.30;;;2.47;;
42098;SDS011;27758;55.900;8.516;2023-06-22T12:49:19;6.93;;;2.70;;
42098;SDS011;27758;55.900;8.516;2023-06-22T12:51:45;3.90;;;2.30;;
42098;SDS011;27758;55.900;8.516;2023-06-22T12:54:11;6.72;;;2.67;;
42098;SDS011;27758;55.900;8.516;2023-06-22T12:56:37;6.88;;;2.70;;
42098;SDS011;27758;55.900;8.516;2023-06-22T12:59:03;4.00;;;2.65;;
42098;SDS011;27758;55.900;8.516;2023-06-22T13:01:30;3.17;;;1.90;;
42098;SDS011;27758;55.900;8.516;2023-06-22T13:03:57;4.45;;;2.40;;
42098;SDS011;27758;55.900;8.516;2023-06-22T13:06:27;3.92;;;2.22;;
42098;SDS011;27758;55.900;8.516;2023-06-22T13:08:53;4.22;;;2.17;;
42098;SDS011;27758;55.900;8.516;2023-06-22T13:11:19;7.68;;;2.53;;
42098;SDS011;27758;55.900;8.516;2023-06-22T13:13:45;5.22;;;2.40;;
42098;SDS011;27758;55.900;8.516;2023-06-22T13:16:11;3.20;;;2.15;;
42098;SDS011;27758;55.900;8.516;2023-06-22T13:18:37;5.45;;;2.13;;
42098;SDS011;27758;55.900;8.516;2023-06-22T13:21:03;3.17;;;2.15;;
42098;SDS011;27758;55.900;8.516;2023-06-22T13:23:29;6.28;;;2.72;;
42098;SDS011;27758;55.900;8.516;2023-06-22T13:25:55;5.38;;;2.50;;
42098;SDS011;27758;55.900;8.516;2023-06-22T13:28:23;4.43;;;2.40;;
42098;SDS011;27758;55.900;8.516;2023-06-22T13:30:48;6.35;;;2.75;;
42098;SDS011;27758;55.900;8.516;2023-06-22T13:33:14;4.32;;;2.65;;
42098;SDS011;27758;55.900;8.516;2023-06-22T13:35:42;5.70;;;2.50;;
42098;SDS011;27758;55.900;8.516;2023-06-22T13:38:11;3.90;;;2.40;;
42098;SDS011;27758;55.900;8.516;2023-06-22T13:40:37;7.57;;;2.72;;
42098;SDS011;27758;55.900;8.516;2023-06-22T13:43:06;8.32;;;3.25;;
42098;SDS011;27758;55.900;8.516;2023-06-22T13:45:32;8.43;;;2.75;;
42098;SDS011;27758;55.900;8.516;2023-06-22T13:47:58;8.32;;;2.80;;
42098;SDS011;27758;55.900;8.516;2023-06-22T13:50:24;6.70;;;2.47;;
42098;SDS011;27758;55.900;8.516;2023-06-22T13:52:49;3.75;;;2.20;;
42098;SDS011;27758;55.900;8.516;2023-06-22T13:55:15;5.18;;;2.25;;
42098;SDS011;27758;55.900;8.516;2023-06-22T13:57:41;6.40;;;2.80;;
42098;SDS011;27758;55.900;8.516;2023-06-22T14:00:07;4.93;;;2.95;;
42098;SDS011;27758;55.900;8.516;2023-06-22T14:02:34;5.15;;;2.40;;
42098;SDS011;27758;55.900;8.516;2023-06-22T14:04:59;3.67;;;2.47;;
42098;SDS011;27758;55.900;8.516;2023-06-22T14:07:26;8.20;;;3.20;;
42098;SDS011;27758;55.900;8.516;2023-06-22T14:09:51;5.20;;;3.00;;
42098;SDS011;27758;55.900;8.516;2023-06-22T14:12:17;4.45;;;2.53;;
42098;SDS011;27758;55.900;8.516;2023-06-22T14:14:43;3.42;;;2.53;;
42098;SDS011;27758;55.900;8.516;2023-06-22T14:17:09;4.13;;;2.50;;
42098;SDS011;27758;55.900;8.516;2023-06-22T14:19:35;8.30;;;2.80;;
42098;SDS011;27758;55.900;8.516;2023-06-22T14:22:01;4.88;;;2.67;;
42098;SDS011;27758;55.900;8.516;2023-06-22T14:24:27;5.90;;;2.83;;
42098;SDS011;27758;55.900;8.516;2023-06-22T14:26:53;7.43;;;3.08;;
42098;SDS011;27758;55.900;8.516;2023-06-22T14:29:20;2.65;;;2.40;;
42098;SDS011;27758;55.900;8.516;2023-06-22T14:31:46;3.33;;;2.45;;
42098;SDS011;27758;55.900;8.516;2023-06-22T14:34:12;3.95;;;2.55;;
42098;SDS011;27758;55.900;8.516;2023-06-22T14:36:38;4.03;;;2.50;;
42098;SDS011;27758;55.900;8.516;2023-06-22T14:39:03;5.13;;;2.53;;
42098;SDS011;27758;55.900;8.516;2023-06-22T14:41:31;6.45;;;2.72;;
42098;SDS011;27758;55.900;8.516;2023-06-22T14:43:57;3.38;;;2.25;;